Lexington, Illinois
Current Conditions -  °F | °C
As of 8:56 PM on Sunday 23 Nov 2014 (Local Time) from KBMI Reporting Station
Light Rain Light Rain  
Wind Chill: 46°   Ceiling: 100
Heat Index: 49°   Visibility: 0.75mi
Dew Point: 49°   Wind: 7mph
Humidity: 100%   Direction: 200°SSW
Pressure: 29.21"   Gusts: NA
Location:  40.64°N, 88.78°W
Report Text: KBMI 240256Z 20006KT 3/4SM R29/4500V5000FT -RA BR OVC001 09/09 A2921 RMK AO2 58034 60036 T00940094 P0010 SLP896
Loading
Personal Weather Stations






























Interactive Weather Map New forecast layout! Learn more

10-Day Weather Forecast

Advertisements
Track Severe Weather on mobile